Terminal Aerodrome Forecast
Issued by NWS

Home | Current Version | Previous Version | Text Only | Print | Product List | Glossary On
Versions: 1 2 3 4 5 6 7 8 9 10 11 12 13 14 15 16
000
FTUS45 KFGZ 271100
TAFSEZ
TAF
KSEZ 271120Z 2712/2812 VRB04KT P6SM SCT025 OVC050
      TEMPO 2712/2716 BKN025
     FM271800 VRB05KT P6SM BKN040 BKN060
     FM280100 04008KT P6SM FEW035 SCT250=

USA.gov is the U.S. government's official web portal to all federal, state and local government web resources and services.